Flight Track Log - Related Links

Times and Time Zones

All times are in EDT time to prevent confusion due to time zone crossing. See the UAL3776 flight status page for this flight to view local times or setup timezone preferences in your user account.

Time Position Orientation Groundspeed Altitude Reporting Facility
EDT Latitude Longitude Course Direction KTS MPH feet Rate Location/Type
Tue 03:40:42 PM 38.9333 -77.5000 201° Southwest 169 194 1,600  Level Potomac TRACON
Tue 03:41:42 PM 38.9000 -77.5500 229° Southwest 229 264 4,000 2,150 Climbing Potomac TRACON
Tue 03:42:42 PM 38.8500 -77.6167 226° Southwest 266 306 5,900 2,628 Climbing Potomac TRACON
Tue 03:43:00 PM 38.6213 -77.6066 189° South  Level Estimated
Tue 03:43:43 PM 38.8000 -77.6833 226° Southwest 281 323 9,300  Level Potomac TRACON
Tue 03:44:00 PM 38.5126 -77.6552 185° South  Level Estimated
Tue 03:44:10 PM 38.7639 -77.6869 184° South 302 348 9,900  Level Washington Center
Tue 03:45:00 PM 38.4038 -77.7036 218° Southwest  Level Estimated
Tue 03:45:10 PM 38.6747 -77.6578 166° South 340 391 12,000  Level Washington Center
Tue 03:46:00 PM 38.2950 -77.7519 201° Southwest  Level Estimated
Tue 03:46:10 PM 38.5833 -77.6289 166° South 369 425 14,600  Level Washington Center
Tue 03:47:10 PM 38.4839 -77.5969 166° South 374 430 17,000 2,000 Climbing Washington Center
Tue 03:48:10 PM 38.3778 -77.5833 174° South 374 430 18,600 1,750 Climbing Washington Center
Tue 03:49:10 PM 38.2847 -77.6628 214° Southwest 364 419 20,500 1,700 Climbing Washington Center
Tue 03:50:10 PM 38.1894 -77.7475 215° Southwest 386 444 22,000 750 Climbing Washington Center
Tue 03:51:10 PM 38.0897 -77.8317 214° Southwest 423 487 22,000  Level Washington Center
Tue 03:52:10 PM 37.9858 -77.9181 213° Southwest 437 503 22,000  Level Washington Center
Tue 03:53:10 PM 37.8883 -78.0019 214° Southwest 443 510 22,000  Level Washington Center
Tue 03:54:10 PM 37.7800 -78.0958 214° Southwest 438 504 22,000  Level Washington Center
Tue 03:55:10 PM 37.6867 -78.1767 214° Southwest 432 497 22,000  Level Washington Center
Tue 03:56:10 PM 37.5844 -78.2650 214° Southwest 434 499 22,000  Level Washington Center
Tue 03:57:10 PM 37.4803 -78.3528 214° Southwest 445 512 22,000  Level Washington Center
Tue 03:58:10 PM 37.3847 -78.4303 213° Southwest 454 522 22,000  Level Washington Center
Tue 03:59:10 PM 37.2783 -78.5153 212° Southwest 459 528 22,000  Level Washington Center
Tue 04:00:10 PM 37.1697 -78.6075 214° Southwest 465 535 22,000 -750 Level Washington Center
Tue 04:01:10 PM 37.0653 -78.6944 214° Southwest 465 535 20,500 -1,700 Descending Washington Center
Tue 04:02:10 PM 36.9650 -78.7761 213° Southwest 458 527 18,600 -1,750 Descending Washington Center
Tue 04:03:10 PM 36.8628 -78.8578 213° Southwest 427 491 17,000 -800 Descending Washington Center
Tue 04:04:10 PM 36.7731 -78.9317 213° Southwest 408 470 17,000  Level Washington Center
Tue 04:05:10 PM 36.6856 -79.0031 213° Southwest 396 456 17,000 -1,059 Level Washington Center
Tue 04:06:09 PM 36.5856 -78.9908 174° South 351 404 14,900 -2,211 Descending Washington Center
Tue 04:06:45 PM 36.5339 -78.9758 167° South 351 404 13,500 -2,361 Descending Washington Center
Tue 04:07:10 PM 36.5028 -78.9717 174° South 352 405 12,500 -2,754 Descending Washington Center
Tue 04:07:46 PM 36.4344 -78.9481 164° South 340 391 10,700 -2,400 Descending Washington Center
Tue 04:08:10 PM 36.4117 -78.9419 168° South 352 405 10,100 -689 Descending Washington Center
Tue 04:08:47 PM 36.3436 -78.9211 166° South 330 380 10,000 -100 Descending Washington Center
Tue 04:09:10 PM 36.3206 -78.9150 168° South 345 397 10,000  Level Washington Center
Tue 04:09:53 PM 36.2503 -78.8939 166° South 325 374 10,000 -100 Level Washington Center
Tue 04:10:10 PM 36.2256 -78.8878 169° South 332 382 9,900 -1,082 Descending Washington Center
Tue 04:10:54 PM 36.1697 -78.8700 166° South 299 344 8,900 -1,300 Descending Washington Center
Tue 04:11:10 PM 36.1550 -78.8667 170° South 304 350 8,600 -885 Descending Washington Center
Tue 04:11:55 PM 36.0847 -78.8483 168° South 272 313 8,000 -600 Descending Washington Center
Tue 04:12:10 PM 36.0786 -78.8456 160° South 294 338 8,000  Level Washington Center
Tue 04:12:56 PM 36.0078 -78.8400 176° South 286 329 8,000 -509 Level Washington Center
Tue 04:13:56 PM 35.9400 -78.8783 205° Southwest 272 313 7,100 -1,289 Descending Washington Center
Tue 04:14:57 PM 35.8861 -78.9350 220° Southwest 252 290 5,400 -1,574 Descending Washington Center
Tue 04:15:58 PM 35.8289 -78.9633 202° Southwest 247 284 3,900 -1,289 Descending Washington Center
Tue 04:16:58 PM 35.8058 -78.9011 115° Southeast 184 212 2,800 -1,100 Descending Washington Center

Login

Don't have an account? Register now (free) for customized features, flight alerts, and more!